Aviation Digital Data Service (ADDS)

Output produced by METARs form (1159 UTC 26 March 2019)
found at http://www.aviationweather.gov/metar/data/
 
RKSG 260956Z 00000KT 5SM HZ CLR 14/M03 A3002 RMK AO2A SLP169 T01431026 $
TAF RKSG 261100Z 2611/2717 19006KT 8000 HZ SKC QNH3002INS 
     BECMG 2615/2616 19012KT 8000 HZ FEW020 QNH2998INS 
     BECMG 2617/2618 19010G15KT 8000 HZ SCT020 BKN100 510005 QNH2992INS 
     BECMG 2702/2703 21015G25KT 8000 HZ FEW020 BKN150 510005 QNH2984INS 
     BECMG 2709/2710 22012G20KT 8000 HZ SCT020 BKN030 510005 QNH2984INS 
     BECMG 2711/2712 23010G15KT 6000 HZ VCSH OVC020 QNH2987INS 
     BECMG 2714/2715 27009KT 4800 -SHRA BR OVC015 QNH2988INS TX17/2706Z
TN06/2619Z
       
RKTU 261100Z 14002KT CAVOK 11/M05 Q1016
TAF RKTU 261100Z 2612/2718 30006KT 9999 SCT030 TN04/2621Z TX15/2706Z
       
RKTN 261100Z 30003KT CAVOK 16/M07 Q1017
TAF COR RKTN 261100Z 2612/2718 31008KT 9999 FEW040 TN06/2621Z TX22/2706Z 
     BECMG 2700/2701 31008G18KT SCT030 SCT200
       
RKPK 261100Z 18009KT CAVOK 14/08 Q1017
TAF RKPK 261100Z 2612/2718 24006KT 9999 FEW030 TN07/2621Z TX19/2706Z 
     BECMG 2702/2703 24010G20KT FEW030 BKN150
       
RKSS 261100Z 23002KT CAVOK 09/M04 Q1016 NOSIG
TAF RKSS 261100Z 2612/2718 18007KT 6000 NSC TN06/2617Z TX14/2703Z 
     BECMG 2618/2619 21010KT 4200 BR FEW010 BKN030 
     BECMG 2701/2702 21015G30KT 6000 NSW 
     TEMPO 2703/2706 -RA 
     BECMG 2709/2710 21007KT 
     BECMG 2711/2712 4200 BR
       
RKSI 261130Z 28004KT 7000 NSC 07/03 Q1017 NOSIG
TAF RKSI 261100Z 2612/2718 19010KT 3500 BR NSC TN05/2620Z TX13/2705Z 
     TEMPO 2618/2622 1200 -RA FEW010 BKN025 
     BECMG 2623/2624 21015G25KT 7000 NSW SCT030 
     TEMPO 2704/2707 24020G35KT 4200 -RA BKN025 
     BECMG 2709/2710 27008KT 4200 BR 
     BECMG 2714/2715 33015G25KT 6000 NSW
       
RKPC 261100Z 27004KT 2800 BR NSC 12/09 Q1020 NOSIG
TAF RKPC 261100Z 2612/2718 19008KT 2300 HZ NSC TN09/2620Z TX20/2705Z 
     BECMG 2702/2703 21015G30KT 6000 NSW 
     BECMG 2709/2710 20008KT 
     BECMG 2715/2716 FEW010 BKN030 BKN100 
     BECMG 2717/2718 30012KT 4200 -RA
       
RKJK 261137Z 00000KT M1/8SM R18/0500V0600FT FG VV000 06/06 A3006 RMK AO2A SLP184 $
TAF RKJK 260700Z 2607/2713 24009KT 4800 HZ SCT140 BKN200 QNH3002INS 
     BECMG 2613/2614 19012G18KT 8000 BR SCT120 BKN200 QNH3008INS 
     BECMG 2616/2617 20015G25KT 8000 BR BKN180 QNH3002INS 
     BECMG 2622/2623 20020G30KT 8000 HZ BKN180 510003 QNH2999INS 
     BECMG 2702/2703 20025G35KT 9999 NSW BKN120 OVC200 510003 QNH2992INS
TX17/2704Z TN05/2615Z
       
RKSO 261058Z 00000KT 7SM CLR 10/01 A3001 RMK AO2A SLP166 T00990009 $
TAF RKSO 261100Z 2611/2717 VRB06KT 9999 SKC QNH2995INS 
     BECMG 2614/2615 19009KT 8000 BR SKC WS018/21534 QNH2995INS 
     BECMG 2618/2620 21010G15KT 8000 BR BKN010 QNH2997INS 
     BECMG 2701/2702 22015G25KT 9999 NSW SKC QNH2980INS 
     BECMG 2708/2710 24009KT 8000 BR SCT020 QNH2980INS 
     BECMG 2714/2715 24009KT 8000 BR BKN010 QNH2985INS TX15/2706Z TN03/2622Z
       
RKSM 261100Z 21003KT 9999 SKC 12/01 A3002
TAF RKSM 261100Z 2612/2718 24006KT 9999 FEW200 
     BECMG 2618/2619 24006KT 8000 BR BKN030 
     BECMG 2705/2706 30006G16KT 9000 HZ BKN030 WND 33008KT AFT 2709 TN06/2621Z
TX17/2706Z
       
RKNY 261100Z 25004KT CAVOK 14/M07 Q1014 NOSIG
TAF RKNY 261100Z 2612/2718 25010KT 7000 NSC TN11/2621Z TX15/2706Z 
     BECMG 2707/2708 36008KT SCT030 BKN130 
     BECMG 2712/2713 4200 -RA SCT010 BKN025 OVC080